sensor_id;sensor_type;location;lat;lon;timestamp;temperature;humidity
23395;DHT22;11870;53.084;18.206;2023-05-10T00:00:29;9.00;61.70
23395;DHT22;11870;53.084;18.206;2023-05-10T00:03:10;12.40;65.00
23395;DHT22;11870;53.084;18.206;2023-05-10T00:05:36;8.60;63.90
23395;DHT22;11870;53.084;18.206;2023-05-10T00:08:02;11.40;67.40
23395;DHT22;11870;53.084;18.206;2023-05-10T00:10:28;8.60;66.80
23395;DHT22;11870;53.084;18.206;2023-05-10T00:12:54;11.10;68.20
23395;DHT22;11870;53.084;18.206;2023-05-10T00:15:21;8.60;67.00
23395;DHT22;11870;53.084;18.206;2023-05-10T00:17:46;8.40;67.60
23395;DHT22;11870;53.084;18.206;2023-05-10T00:22:39;8.40;68.90
23395;DHT22;11870;53.084;18.206;2023-05-10T00:25:05;8.00;69.80
23395;DHT22;11870;53.084;18.206;2023-05-10T00:27:31;8.30;71.00
23395;DHT22;11870;53.084;18.206;2023-05-10T00:29:57;7.80;72.10
23395;DHT22;11870;53.084;18.206;2023-05-10T00:32:23;8.00;73.80
23395;DHT22;11870;53.084;18.206;2023-05-10T00:34:49;9.70;75.30
23395;DHT22;11870;53.084;18.206;2023-05-10T00:37:16;8.00;75.10
23395;DHT22;11870;53.084;18.206;2023-05-10T00:39:42;11.70;77.60
23395;DHT22;11870;53.084;18.206;2023-05-10T00:42:07;7.80;76.60
23395;DHT22;11870;53.084;18.206;2023-05-10T00:44:34;7.90;76.60
23395;DHT22;11870;53.084;18.206;2023-05-10T00:46:59;7.90;78.80
23395;DHT22;11870;53.084;18.206;2023-05-10T00:49:26;7.50;78.40
23395;DHT22;11870;53.084;18.206;2023-05-10T00:51:52;9.80;80.70
23395;DHT22;11870;53.084;18.206;2023-05-10T00:54:18;10.20;82.00
23395;DHT22;11870;53.084;18.206;2023-05-10T00:56:44;7.90;80.40
23395;DHT22;11870;53.084;18.206;2023-05-10T00:59:15;8.00;79.70
23395;DHT22;11870;53.084;18.206;2023-05-10T01:01:47;10.40;81.90
23395;DHT22;11870;53.084;18.206;2023-05-10T01:04:14;7.40;81.30
23395;DHT22;11870;53.084;18.206;2023-05-10T01:06:41;7.80;83.30
23395;DHT22;11870;53.084;18.206;2023-05-10T01:09:07;11.30;85.70
23395;DHT22;11870;53.084;18.206;2023-05-10T01:11:38;6.60;84.00
23395;DHT22;11870;53.084;18.206;2023-05-10T01:14:06;10.90;88.40
23395;DHT22;11870;53.084;18.206;2023-05-10T01:16:36;11.10;88.70
23395;DHT22;11870;53.084;18.206;2023-05-10T01:19:39;7.00;88.90
23395;DHT22;11870;53.084;18.206;2023-05-10T01:33:11;6.90;95.80
23395;DHT22;11870;53.084;18.206;2023-05-10T01:38:56;6.80;96.70
23395;DHT22;11870;53.084;18.206;2023-05-10T01:43:59;6.80;99.10
23395;DHT22;11870;53.084;18.206;2023-05-10T01:46:37;8.00;99.20
23395;DHT22;11870;53.084;18.206;2023-05-10T01:49:08;6.80;99.30
23395;DHT22;11870;53.084;18.206;2023-05-10T01:51:39;9.00;99.90
23395;DHT22;11870;53.084;18.206;2023-05-10T01:54:08;6.80;99.90
23395;DHT22;11870;53.084;18.206;2023-05-10T01:56:35;6.80;99.90
23395;DHT22;11870;53.084;18.206;2023-05-10T01:59:07;9.20;99.90
23395;DHT22;11870;53.084;18.206;2023-05-10T02:01:36;10.00;99.90
23395;DHT22;11870;53.084;18.206;2023-05-10T02:04:02;6.90;99.90
23395;DHT22;11870;53.084;18.206;2023-05-10T02:08:55;7.00;99.90
23395;DHT22;11870;53.084;18.206;2023-05-10T02:11:21;10.30;99.90
23395;DHT22;11870;53.084;18.206;2023-05-10T02:13:50;6.90;99.90
23395;DHT22;11870;53.084;18.206;2023-05-10T02:16:18;6.70;99.90
23395;DHT22;11870;53.084;18.206;2023-05-10T02:18:46;6.70;99.90
23395;DHT22;11870;53.084;18.206;2023-05-10T02:21:15;6.80;99.90
23395;DHT22;11870;53.084;18.206;2023-05-10T02:23:43;6.60;99.90
23395;DHT22;11870;53.084;18.206;2023-05-10T02:26:09;6.60;99.90
23395;DHT22;11870;53.084;18.206;2023-05-10T02:31:05;6.60;99.90
23395;DHT22;11870;53.084;18.206;2023-05-10T02:33:32;6.20;99.90
23395;DHT22;11870;53.084;18.206;2023-05-10T02:36:02;6.40;99.90
23395;DHT22;11870;53.084;18.206;2023-05-10T02:38:28;9.00;99.90
23395;DHT22;11870;53.084;18.206;2023-05-10T02:40:57;6.10;99.90
23395;DHT22;11870;53.084;18.206;2023-05-10T02:43:24;6.10;99.90
23395;DHT22;11870;53.084;18.206;2023-05-10T02:48:17;5.90;99.90
23395;DHT22;11870;53.084;18.206;2023-05-10T02:50:44;5.80;99.90
23395;DHT22;11870;53.084;18.206;2023-05-10T02:53:15;5.80;99.90
23395;DHT22;11870;53.084;18.206;2023-05-10T02:55:45;5.90;99.90
23395;DHT22;11870;53.084;18.206;2023-05-10T03:00:40;5.90;99.90
23395;DHT22;11870;53.084;18.206;2023-05-10T03:03:06;5.70;99.90
23395;DHT22;11870;53.084;18.206;2023-05-10T03:05:32;6.00;99.90
23395;DHT22;11870;53.084;18.206;2023-05-10T03:07:59;6.10;99.90
23395;DHT22;11870;53.084;18.206;2023-05-10T03:10:27;6.20;99.90
23395;DHT22;11870;53.084;18.206;2023-05-10T03:13:24;6.60;99.90
23395;DHT22;11870;53.084;18.206;2023-05-10T03:16:18;6.10;99.90
23395;DHT22;11870;53.084;18.206;2023-05-10T03:21:41;6.20;99.90
23395;DHT22;11870;53.084;18.206;2023-05-10T03:24:12;6.00;99.90
23395;DHT22;11870;53.084;18.206;2023-05-10T03:26:43;9.80;99.90
23395;DHT22;11870;53.084;18.206;2023-05-10T03:29:12;8.20;99.90
23395;DHT22;11870;53.084;18.206;2023-05-10T03:31:38;5.90;99.90
23395;DHT22;11870;53.084;18.206;2023-05-10T03:34:04;9.50;99.90
23395;DHT22;11870;53.084;18.206;2023-05-10T03:36:30;6.40;99.90
23395;DHT22;11870;53.084;18.206;2023-05-10T03:38:56;6.80;99.90
23395;DHT22;11870;53.084;18.206;2023-05-10T03:41:22;9.80;99.90
23395;DHT22;11870;53.084;18.206;2023-05-10T03:43:48;11.00;99.90
23395;DHT22;11870;53.084;18.206;2023-05-10T03:48:40;9.10;98.30
23395;DHT22;11870;53.084;18.206;2023-05-10T03:51:06;9.60;94.40
23395;DHT22;11870;53.084;18.206;2023-05-10T03:53:35;10.50;91.90
23395;DHT22;11870;53.084;18.206;2023-05-10T03:56:01;10.90;87.10
23395;DHT22;11870;53.084;18.206;2023-05-10T03:58:27;11.30;77.60
23395;DHT22;11870;53.084;18.206;2023-05-10T04:00:53;11.80;72.50
23395;DHT22;11870;53.084;18.206;2023-05-10T04:03:19;12.00;66.10
23395;DHT22;11870;53.084;18.206;2023-05-10T04:05:46;15.20;64.10
23395;DHT22;11870;53.084;18.206;2023-05-10T04:08:11;12.80;60.20
23395;DHT22;11870;53.084;18.206;2023-05-10T04:10:38;13.10;58.10
23395;DHT22;11870;53.084;18.206;2023-05-10T04:13:03;13.40;55.60
23395;DHT22;11870;53.084;18.206;2023-05-10T04:15:29;14.20;55.30
23395;DHT22;11870;53.084;18.206;2023-05-10T04:17:55;15.40;55.70
23395;DHT22;11870;53.084;18.206;2023-05-10T04:20:21;15.90;53.60
23395;DHT22;11870;53.084;18.206;2023-05-10T04:22:47;17.20;53.60
23395;DHT22;11870;53.084;18.206;2023-05-10T04:25:13;17.00;51.10
23395;DHT22;11870;53.084;18.206;2023-05-10T04:30:06;15.90;45.30
23395;DHT22;11870;53.084;18.206;2023-05-10T04:32:32;16.00;46.20
23395;DHT22;11870;53.084;18.206;2023-05-10T04:34:58;16.30;44.40
23395;DHT22;11870;53.084;18.206;2023-05-10T04:37:24;17.90;44.50
23395;DHT22;11870;53.084;18.206;2023-05-10T04:39:50;17.70;43.90
23395;DHT22;11870;53.084;18.206;2023-05-10T04:42:16;18.50;44.00
23395;DHT22;11870;53.084;18.206;2023-05-10T04:44:42;17.90;42.50
23395;DHT22;11870;53.084;18.206;2023-05-10T04:47:09;16.80;41.10
23395;DHT22;11870;53.084;18.206;2023-05-10T04:49:35;16.90;40.70
23395;DHT22;11870;53.084;18.206;2023-05-10T04:52:00;18.80;40.70
23395;DHT22;11870;53.084;18.206;2023-05-10T04:54:27;18.10;39.50
23395;DHT22;11870;53.084;18.206;2023-05-10T04:56:52;18.50;39.20
23395;DHT22;11870;53.084;18.206;2023-05-10T04:59:18;18.60;38.30
23395;DHT22;11870;53.084;18.206;2023-05-10T05:01:44;18.00;37.50
23395;DHT22;11870;53.084;18.206;2023-05-10T05:04:10;19.40;37.70
23395;DHT22;11870;53.084;18.206;2023-05-10T05:06:36;19.70;37.20
23395;DHT22;11870;53.084;18.206;2023-05-10T05:09:02;20.40;36.10
23395;DHT22;11870;53.084;18.206;2023-05-10T05:11:28;20.40;35.50
23395;DHT22;11870;53.084;18.206;2023-05-10T05:13:54;20.10;33.10
23395;DHT22;11870;53.084;18.206;2023-05-10T05:16:20;20.10;32.30
23395;DHT22;11870;53.084;18.206;2023-05-10T05:18:46;20.20;32.10
23395;DHT22;11870;53.084;18.206;2023-05-10T05:21:19;20.00;31.50
23395;DHT22;11870;53.084;18.206;2023-05-10T05:23:46;20.20;31.90
23395;DHT22;11870;53.084;18.206;2023-05-10T05:26:11;20.40;31.00
23395;DHT22;11870;53.084;18.206;2023-05-10T05:28:38;21.00;30.20
23395;DHT22;11870;53.084;18.206;2023-05-10T05:31:04;21.50;29.50
23395;DHT22;11870;53.084;18.206;2023-05-10T05:33:31;22.10;28.90
23395;DHT22;11870;53.084;18.206;2023-05-10T05:35:57;22.10;28.60
23395;DHT22;11870;53.084;18.206;2023-05-10T05:38:23;22.40;28.20
23395;DHT22;11870;53.084;18.206;2023-05-10T05:40:49;22.30;27.80
23395;DHT22;11870;53.084;18.206;2023-05-10T05:43:15;22.70;27.60
23395;DHT22;11870;53.084;18.206;2023-05-10T05:45:41;22.80;27.50
23395;DHT22;11870;53.084;18.206;2023-05-10T05:48:07;23.70;26.70
23395;DHT22;11870;53.084;18.206;2023-05-10T05:50:32;23.90;25.70
23395;DHT22;11870;53.084;18.206;2023-05-10T05:52:58;24.10;25.40
23395;DHT22;11870;53.084;18.206;2023-05-10T05:55:24;24.00;24.80
23395;DHT22;11870;53.084;18.206;2023-05-10T05:57:51;23.60;24.60
23395;DHT22;11870;53.084;18.206;2023-05-10T06:00:17;23.70;24.80
23395;DHT22;11870;53.084;18.206;2023-05-10T06:02:43;24.00;24.30
23395;DHT22;11870;53.084;18.206;2023-05-10T06:05:09;23.90;24.10
23395;DHT22;11870;53.084;18.206;2023-05-10T06:07:35;24.30;24.30
23395;DHT22;11870;53.084;18.206;2023-05-10T06:10:01;24.20;24.10
23395;DHT22;11870;53.084;18.206;2023-05-10T06:12:28;24.30;23.70
23395;DHT22;11870;53.084;18.206;2023-05-10T06:14:54;24.80;23.90
23395;DHT22;11870;53.084;18.206;2023-05-10T06:17:20;25.40;23.00
23395;DHT22;11870;53.084;18.206;2023-05-10T06:19:50;25.40;22.70
23395;DHT22;11870;53.084;18.206;2023-05-10T06:22:19;25.40;22.40
23395;DHT22;11870;53.084;18.206;2023-05-10T06:24:45;25.60;21.80
23395;DHT22;11870;53.084;18.206;2023-05-10T06:27:17;26.20;22.20
23395;DHT22;11870;53.084;18.206;2023-05-10T06:29:42;26.20;21.70
23395;DHT22;11870;53.084;18.206;2023-05-10T06:32:09;26.40;20.90
23395;DHT22;11870;53.084;18.206;2023-05-10T06:34:34;25.90;21.00
23395;DHT22;11870;53.084;18.206;2023-05-10T06:37:03;26.50;21.60
23395;DHT22;11870;53.084;18.206;2023-05-10T06:39:29;26.50;20.80
23395;DHT22;11870;53.084;18.206;2023-05-10T06:41:55;26.20;20.40
23395;DHT22;11870;53.084;18.206;2023-05-10T06:44:21;25.50;20.90
23395;DHT22;11870;53.084;18.206;2023-05-10T06:46:47;26.00;21.50
23395;DHT22;11870;53.084;18.206;2023-05-10T06:49:13;26.60;20.50
23395;DHT22;11870;53.084;18.206;2023-05-10T06:51:39;26.90;20.10
23395;DHT22;11870;53.084;18.206;2023-05-10T06:54:05;27.30;20.30
23395;DHT22;11870;53.084;18.206;2023-05-10T06:56:31;27.60;19.80
23395;DHT22;11870;53.084;18.206;2023-05-10T06:58:57;28.10;19.30
23395;DHT22;11870;53.084;18.206;2023-05-10T07:01:23;27.70;19.20
23395;DHT22;11870;53.084;18.206;2023-05-10T07:03:49;27.60;19.20
23395;DHT22;11870;53.084;18.206;2023-05-10T07:06:16;27.60;19.80
23395;DHT22;11870;53.084;18.206;2023-05-10T07:08:42;28.20;19.60
23395;DHT22;11870;53.084;18.206;2023-05-10T07:11:08;28.00;18.70
23395;DHT22;11870;53.084;18.206;2023-05-10T07:13:34;27.20;18.90
23395;DHT22;11870;53.084;18.206;2023-05-10T07:16:00;27.40;19.60
23395;DHT22;11870;53.084;18.206;2023-05-10T07:18:28;27.90;19.60
23395;DHT22;11870;53.084;18.206;2023-05-10T07:20:54;27.60;18.70
23395;DHT22;11870;53.084;18.206;2023-05-10T07:23:19;27.80;19.80
23395;DHT22;11870;53.084;18.206;2023-05-10T07:25:47;28.20;19.30
23395;DHT22;11870;53.084;18.206;2023-05-10T07:28:14;28.40;18.70
23395;DHT22;11870;53.084;18.206;2023-05-10T07:30:40;29.10;19.00
23395;DHT22;11870;53.084;18.206;2023-05-10T07:33:07;29.00;18.50
23395;DHT22;11870;53.084;18.206;2023-05-10T07:35:34;29.00;17.90
23395;DHT22;11870;53.084;18.206;2023-05-10T07:38:00;29.10;18.00
23395;DHT22;11870;53.084;18.206;2023-05-10T07:40:26;29.10;17.80
23395;DHT22;11870;53.084;18.206;2023-05-10T07:42:52;28.20;17.20
23395;DHT22;11870;53.084;18.206;2023-05-10T07:45:19;26.80;18.70
23395;DHT22;11870;53.084;18.206;2023-05-10T07:47:45;27.00;18.70
23395;DHT22;11870;53.084;18.206;2023-05-10T07:50:11;27.70;19.20
23395;DHT22;11870;53.084;18.206;2023-05-10T07:52:37;28.80;19.30
23395;DHT22;11870;53.084;18.206;2023-05-10T07:55:03;29.60;17.60
23395;DHT22;11870;53.084;18.206;2023-05-10T07:57:29;28.80;17.10
23395;DHT22;11870;53.084;18.206;2023-05-10T07:59:55;28.30;17.40
23395;DHT22;11870;53.084;18.206;2023-05-10T08:02:20;28.20;18.20
23395;DHT22;11870;53.084;18.206;2023-05-10T08:04:47;28.50;17.90
23395;DHT22;11870;53.084;18.206;2023-05-10T08:07:12;29.00;18.10
23395;DHT22;11870;53.084;18.206;2023-05-10T08:09:38;28.00;16.60
23395;DHT22;11870;53.084;18.206;2023-05-10T08:12:04;27.40;17.20
23395;DHT22;11870;53.084;18.206;2023-05-10T08:14:31;26.60;18.00
23395;DHT22;11870;53.084;18.206;2023-05-10T08:16:56;25.90;19.00
23395;DHT22;11870;53.084;18.206;2023-05-10T08:19:22;26.50;18.90
23395;DHT22;11870;53.084;18.206;2023-05-10T08:21:49;27.00;19.40
23395;DHT22;11870;53.084;18.206;2023-05-10T08:24:15;27.60;18.10
23395;DHT22;11870;53.084;18.206;2023-05-10T08:26:41;27.30;17.70
23395;DHT22;11870;53.084;18.206;2023-05-10T08:29:07;27.50;17.90
23395;DHT22;11870;53.084;18.206;2023-05-10T08:31:33;27.50;18.00
23395;DHT22;11870;53.084;18.206;2023-05-10T08:33:59;27.40;17.90
23395;DHT22;11870;53.084;18.206;2023-05-10T08:36:25;27.70;17.80
23395;DHT22;11870;53.084;18.206;2023-05-10T08:38:52;27.70;18.20
23395;DHT22;11870;53.084;18.206;2023-05-10T08:41:23;27.80;17.90
23395;DHT22;11870;53.084;18.206;2023-05-10T08:43:53;28.80;17.90
23395;DHT22;11870;53.084;18.206;2023-05-10T08:46:20;28.90;16.90
23395;DHT22;11870;53.084;18.206;2023-05-10T08:48:48;28.80;16.50
23395;DHT22;11870;53.084;18.206;2023-05-10T08:51:18;28.10;17.00
23395;DHT22;11870;53.084;18.206;2023-05-10T08:53:45;28.40;17.70
23395;DHT22;11870;53.084;18.206;2023-05-10T08:56:11;27.50;17.40
23395;DHT22;11870;53.084;18.206;2023-05-10T08:58:38;28.40;18.00
23395;DHT22;11870;53.084;18.206;2023-05-10T09:01:05;29.20;17.80
23395;DHT22;11870;53.084;18.206;2023-05-10T09:03:31;29.40;16.70
23395;DHT22;11870;53.084;18.206;2023-05-10T09:05:57;28.20;16.80
23395;DHT22;11870;53.084;18.206;2023-05-10T09:08:24;26.90;17.50
23395;DHT22;11870;53.084;18.206;2023-05-10T09:10:54;26.90;18.40
23395;DHT22;11870;53.084;18.206;2023-05-10T09:13:22;27.00;18.60
23395;DHT22;11870;53.084;18.206;2023-05-10T09:15:48;27.50;18.00
23395;DHT22;11870;53.084;18.206;2023-05-10T09:18:14;27.80;18.00
23395;DHT22;11870;53.084;18.206;2023-05-10T09:20:40;27.70;17.80
23395;DHT22;11870;53.084;18.206;2023-05-10T09:23:06;28.00;17.70
23395;DHT22;11870;53.084;18.206;2023-05-10T09:25:33;27.20;17.20
23395;DHT22;11870;53.084;18.206;2023-05-10T09:27:59;28.50;18.00
23395;DHT22;11870;53.084;18.206;2023-05-10T09:32:53;28.50;15.80
23395;DHT22;11870;53.084;18.206;2023-05-10T09:35:22;29.10;17.50
23395;DHT22;11870;53.084;18.206;2023-05-10T09:37:51;28.50;16.30
23395;DHT22;11870;53.084;18.206;2023-05-10T09:40:23;28.00;16.60
23395;DHT22;11870;53.084;18.206;2023-05-10T09:42:54;28.70;16.90
23395;DHT22;11870;53.084;18.206;2023-05-10T09:45:22;28.40;16.80
23395;DHT22;11870;53.084;18.206;2023-05-10T09:47:48;29.40;17.30
23395;DHT22;11870;53.084;18.206;2023-05-10T09:50:14;28.30;16.70
23395;DHT22;11870;53.084;18.206;2023-05-10T09:55:25;29.90;17.40
23395;DHT22;11870;53.084;18.206;2023-05-10T09:58:01;30.90;16.80
23395;DHT22;11870;53.084;18.206;2023-05-10T10:00:27;31.00;16.00
23395;DHT22;11870;53.084;18.206;2023-05-10T10:02:58;31.20;16.00
23395;DHT22;11870;53.084;18.206;2023-05-10T10:05:35;31.80;16.40
23395;DHT22;11870;53.084;18.206;2023-05-10T10:08:05;32.20;15.10
23395;DHT22;11870;53.084;18.206;2023-05-10T10:10:32;31.90;15.20
23395;DHT22;11870;53.084;18.206;2023-05-10T10:12:58;31.60;15.40
23395;DHT22;11870;53.084;18.206;2023-05-10T10:15:26;30.60;15.60
23395;DHT22;11870;53.084;18.206;2023-05-10T10:17:53;28.40;16.20
23395;DHT22;11870;53.084;18.206;2023-05-10T10:20:20;28.20;18.00
23395;DHT22;11870;53.084;18.206;2023-05-10T10:22:47;26.90;19.10
23395;DHT22;11870;53.084;18.206;2023-05-10T10:25:15;26.00;20.50
23395;DHT22;11870;53.084;18.206;2023-05-10T10:35:45;22.10;24.80
23395;DHT22;11870;53.084;18.206;2023-05-10T10:38:15;21.50;25.20
23395;DHT22;11870;53.084;18.206;2023-05-10T10:40:41;21.10;26.00
23395;DHT22;11870;53.084;18.206;2023-05-10T10:43:27;20.50;26.20
23395;DHT22;11870;53.084;18.206;2023-05-10T10:48:37;20.20;27.00
23395;DHT22;11870;53.084;18.206;2023-05-10T10:51:02;19.90;27.70
23395;DHT22;11870;53.084;18.206;2023-05-10T10:53:29;19.80;28.20
23395;DHT22;11870;53.084;18.206;2023-05-10T10:56:11;19.90;28.00
23395;DHT22;11870;53.084;18.206;2023-05-10T10:58:39;20.10;28.20
23395;DHT22;11870;53.084;18.206;2023-05-10T11:01:14;19.60;28.00
23395;DHT22;11870;53.084;18.206;2023-05-10T11:06:31;19.40;29.10
23395;DHT22;11870;53.084;18.206;2023-05-10T11:09:07;19.20;28.30
23395;DHT22;11870;53.084;18.206;2023-05-10T11:11:34;19.20;29.20
23395;DHT22;11870;53.084;18.206;2023-05-10T11:14:07;19.30;29.00
23395;DHT22;11870;53.084;18.206;2023-05-10T11:16:41;19.20;29.50
23395;DHT22;11870;53.084;18.206;2023-05-10T11:19:10;19.20;29.80
23395;DHT22;11870;53.084;18.206;2023-05-10T11:21:51;19.30;29.20
23395;DHT22;11870;53.084;18.206;2023-05-10T11:24:19;19.50;29.00
23395;DHT22;11870;53.084;18.206;2023-05-10T11:26:45;19.40;29.30
23395;DHT22;11870;53.084;18.206;2023-05-10T11:29:13;19.30;28.80
23395;DHT22;11870;53.084;18.206;2023-05-10T11:31:46;19.40;29.40
23395;DHT22;11870;53.084;18.206;2023-05-10T11:34:26;19.50;29.30
23395;DHT22;11870;53.084;18.206;2023-05-10T11:36:54;18.90;29.00
23395;DHT22;11870;53.084;18.206;2023-05-10T11:39:21;19.40;28.90
23395;DHT22;11870;53.084;18.206;2023-05-10T11:41:48;19.50;29.00
23395;DHT22;11870;53.084;18.206;2023-05-10T11:44:15;20.00;28.90
23395;DHT22;11870;53.084;18.206;2023-05-10T11:46:40;19.40;27.60
23395;DHT22;11870;53.084;18.206;2023-05-10T11:49:07;19.30;28.40
23395;DHT22;11870;53.084;18.206;2023-05-10T11:51:36;19.20;28.20
23395;DHT22;11870;53.084;18.206;2023-05-10T11:54:07;19.30;28.30
23395;DHT22;11870;53.084;18.206;2023-05-10T11:56:40;19.10;28.00
23395;DHT22;11870;53.084;18.206;2023-05-10T11:59:06;19.00;28.60
23395;DHT22;11870;53.084;18.206;2023-05-10T12:01:33;20.30;29.20
23395;DHT22;11870;53.084;18.206;2023-05-10T12:04:00;19.90;28.80
23395;DHT22;11870;53.084;18.206;2023-05-10T12:06:28;19.10;28.70
23395;DHT22;11870;53.084;18.206;2023-05-10T12:08:55;18.90;27.90
23395;DHT22;11870;53.084;18.206;2023-05-10T12:11:25;19.00;29.00
23395;DHT22;11870;53.084;18.206;2023-05-10T12:13:51;19.20;28.10
23395;DHT22;11870;53.084;18.206;2023-05-10T12:16:18;19.10;27.70
23395;DHT22;11870;53.084;18.206;2023-05-10T12:18:48;19.20;28.40
23395;DHT22;11870;53.084;18.206;2023-05-10T12:21:15;19.30;28.30
23395;DHT22;11870;53.084;18.206;2023-05-10T12:23:41;19.50;27.30
23395;DHT22;11870;53.084;18.206;2023-05-10T12:26:11;18.90;27.80
23395;DHT22;11870;53.084;18.206;2023-05-10T12:28:37;18.90;28.10
23395;DHT22;11870;53.084;18.206;2023-05-10T12:31:05;18.90;28.10
23395;DHT22;11870;53.084;18.206;2023-05-10T12:33:36;18.90;28.50
23395;DHT22;11870;53.084;18.206;2023-05-10T12:36:05;19.10;28.60
23395;DHT22;11870;53.084;18.206;2023-05-10T12:38:38;19.10;28.20
23395;DHT22;11870;53.084;18.206;2023-05-10T12:41:10;19.10;28.00
23395;DHT22;11870;53.084;18.206;2023-05-10T12:43:37;19.00;27.60
23395;DHT22;11870;53.084;18.206;2023-05-10T12:46:08;19.00;28.30
23395;DHT22;11870;53.084;18.206;2023-05-10T12:48:35;19.10;27.80
23395;DHT22;11870;53.084;18.206;2023-05-10T12:51:02;19.00;28.10
23395;DHT22;11870;53.084;18.206;2023-05-10T12:53:29;19.10;27.70
23395;DHT22;11870;53.084;18.206;2023-05-10T12:55:55;19.20;26.60
23395;DHT22;11870;53.084;18.206;2023-05-10T12:58:21;19.10;26.60
23395;DHT22;11870;53.084;18.206;2023-05-10T13:00:47;19.10;27.40
23395;DHT22;11870;53.084;18.206;2023-05-10T13:03:13;19.60;28.40
23395;DHT22;11870;53.084;18.206;2023-05-10T13:05:40;19.00;28.70
23395;DHT22;11870;53.084;18.206;2023-05-10T13:08:06;19.00;29.10
23395;DHT22;11870;53.084;18.206;2023-05-10T13:10:32;20.50;29.80
23395;DHT22;11870;53.084;18.206;2023-05-10T13:12:58;20.80;28.80
23395;DHT22;11870;53.084;18.206;2023-05-10T13:15:25;19.70;28.10
23395;DHT22;11870;53.084;18.206;2023-05-10T13:17:51;20.90;29.40
23395;DHT22;11870;53.084;18.206;2023-05-10T13:20:17;20.60;29.40
23395;DHT22;11870;53.084;18.206;2023-05-10T13:22:44;19.30;28.70
23395;DHT22;11870;53.084;18.206;2023-05-10T13:25:10;21.00;29.90
23395;DHT22;11870;53.084;18.206;2023-05-10T13:27:40;19.20;29.20
23395;DHT22;11870;53.084;18.206;2023-05-10T13:30:09;19.20;29.00
23395;DHT22;11870;53.084;18.206;2023-05-10T13:32:37;19.20;29.00
23395;DHT22;11870;53.084;18.206;2023-05-10T13:35:03;19.70;29.40
23395;DHT22;11870;53.084;18.206;2023-05-10T13:37:30;19.10;29.30
23395;DHT22;11870;53.084;18.206;2023-05-10T13:39:56;20.00;29.50
23395;DHT22;11870;53.084;18.206;2023-05-10T13:42:23;19.30;29.20
23395;DHT22;11870;53.084;18.206;2023-05-10T13:44:49;19.30;29.60
23395;DHT22;11870;53.084;18.206;2023-05-10T13:47:16;20.80;29.80
23395;DHT22;11870;53.084;18.206;2023-05-10T13:49:41;19.10;29.30
23395;DHT22;11870;53.084;18.206;2023-05-10T13:52:08;20.20;29.80
23395;DHT22;11870;53.084;18.206;2023-05-10T13:54:36;20.00;29.90
23395;DHT22;11870;53.084;18.206;2023-05-10T13:57:03;19.10;29.70
23395;DHT22;11870;53.084;18.206;2023-05-10T13:59:30;20.60;30.90
23395;DHT22;11870;53.084;18.206;2023-05-10T14:01:59;20.50;30.00
23395;DHT22;11870;53.084;18.206;2023-05-10T14:04:28;19.00;29.50
23395;DHT22;11870;53.084;18.206;2023-05-10T14:06:54;19.10;30.00
23395;DHT22;11870;53.084;18.206;2023-05-10T14:09:20;19.00;29.90
23395;DHT22;11870;53.084;18.206;2023-05-10T14:11:46;19.10;30.10
23395;DHT22;11870;53.084;18.206;2023-05-10T14:14:12;19.20;30.40
23395;DHT22;11870;53.084;18.206;2023-05-10T14:16:43;21.90;31.20
23395;DHT22;11870;53.084;18.206;2023-05-10T14:19:10;19.10;29.50
23395;DHT22;11870;53.084;18.206;2023-05-10T14:21:36;19.50;30.20
23395;DHT22;11870;53.084;18.206;2023-05-10T14:26:28;19.20;29.20
23395;DHT22;11870;53.084;18.206;2023-05-10T14:28:54;20.50;30.60
23395;DHT22;11870;53.084;18.206;2023-05-10T14:31:20;19.20;30.30
23395;DHT22;11870;53.084;18.206;2023-05-10T14:33:47;19.50;30.20
23395;DHT22;11870;53.084;18.206;2023-05-10T14:36:13;20.10;30.00
23395;DHT22;11870;53.084;18.206;2023-05-10T14:38:40;20.50;30.60
23395;DHT22;11870;53.084;18.206;2023-05-10T14:41:06;19.00;29.90
23395;DHT22;11870;53.084;18.206;2023-05-10T14:43:32;18.90;30.30
23395;DHT22;11870;53.084;18.206;2023-05-10T14:45:58;19.00;30.30
23395;DHT22;11870;53.084;18.206;2023-05-10T14:48:24;18.90;30.30
23395;DHT22;11870;53.084;18.206;2023-05-10T14:50:50;19.20;30.90
23395;DHT22;11870;53.084;18.206;2023-05-10T14:53:18;18.90;30.60
23395;DHT22;11870;53.084;18.206;2023-05-10T14:55:44;20.20;31.40
23395;DHT22;11870;53.084;18.206;2023-05-10T14:58:10;19.30;30.50
23395;DHT22;11870;53.084;18.206;2023-05-10T15:00:36;19.20;30.80
23395;DHT22;11870;53.084;18.206;2023-05-10T15:03:02;19.20;31.50
23395;DHT22;11870;53.084;18.206;2023-05-10T15:05:29;19.40;30.90
23395;DHT22;11870;53.084;18.206;2023-05-10T15:07:55;19.00;30.30
23395;DHT22;11870;53.084;18.206;2023-05-10T15:10:21;19.80;31.20
23395;DHT22;11870;53.084;18.206;2023-05-10T15:12:47;19.00;30.60
23395;DHT22;11870;53.084;18.206;2023-05-10T15:15:13;20.40;31.00
23395;DHT22;11870;53.084;18.206;2023-05-10T15:20:05;19.00;30.00
23395;DHT22;11870;53.084;18.206;2023-05-10T15:22:31;18.90;30.50
23395;DHT22;11870;53.084;18.206;2023-05-10T15:24:58;18.90;30.80
23395;DHT22;11870;53.084;18.206;2023-05-10T15:27:25;20.30;30.90
23395;DHT22;11870;53.084;18.206;2023-05-10T15:29:52;18.90;30.10
23395;DHT22;11870;53.084;18.206;2023-05-10T15:32:19;18.90;30.90
23395;DHT22;11870;53.084;18.206;2023-05-10T15:34:45;19.30;30.70
23395;DHT22;11870;53.084;18.206;2023-05-10T15:37:11;21.10;31.80
23395;DHT22;11870;53.084;18.206;2023-05-10T15:39:37;18.90;30.70
23395;DHT22;11870;53.084;18.206;2023-05-10T15:42:03;18.90;30.40
23395;DHT22;11870;53.084;18.206;2023-05-10T15:44:30;18.80;30.40
23395;DHT22;11870;53.084;18.206;2023-05-10T15:46:55;20.90;31.50
23395;DHT22;11870;53.084;18.206;2023-05-10T15:49:21;19.30;30.80
23395;DHT22;11870;53.084;18.206;2023-05-10T15:54:14;18.80;30.20
23395;DHT22;11870;53.084;18.206;2023-05-10T15:56:40;19.50;31.90
23395;DHT22;11870;53.084;18.206;2023-05-10T15:59:06;20.00;31.50
23395;DHT22;11870;53.084;18.206;2023-05-10T16:01:33;19.60;31.20
23395;DHT22;11870;53.084;18.206;2023-05-10T16:03:59;18.80;30.90
23395;DHT22;11870;53.084;18.206;2023-05-10T16:06:26;19.00;31.20
23395;DHT22;11870;53.084;18.206;2023-05-10T16:08:52;18.70;30.60
23395;DHT22;11870;53.084;18.206;2023-05-10T16:11:17;18.70;30.70
23395;DHT22;11870;53.084;18.206;2023-05-10T16:13:43;18.80;30.70
23395;DHT22;11870;53.084;18.206;2023-05-10T16:16:09;19.20;30.90
23395;DHT22;11870;53.084;18.206;2023-05-10T16:18:35;19.40;31.40
23395;DHT22;11870;53.084;18.206;2023-05-10T16:21:01;18.70;31.20